sensor_id;sensor_type;location;lat;lon;timestamp;temperature;humidity
78448;SHT31;67742;51.972;5.682;2023-03-05T00:01:42;8.1;59.9
78448;SHT31;67742;51.972;5.682;2023-03-05T00:04:14;8.1;59.9
78448;SHT31;67742;51.972;5.682;2023-03-05T00:06:44;8.1;60.1
78448;SHT31;67742;51.972;5.682;2023-03-05T00:09:13;8.1;59.8
78448;SHT31;67742;51.972;5.682;2023-03-05T00:11:43;8.1;59.6
78448;SHT31;67742;51.972;5.682;2023-03-05T00:14:13;8.1;59.8
78448;SHT31;67742;51.972;5.682;2023-03-05T00:16:44;8.1;59.6
78448;SHT31;67742;51.972;5.682;2023-03-05T00:19:14;8.1;59.5
78448;SHT31;67742;51.972;5.682;2023-03-05T00:21:43;8.1;59.7
78448;SHT31;67742;51.972;5.682;2023-03-05T00:24:15;8.1;59.5
78448;SHT31;67742;51.972;5.682;2023-03-05T00:26:46;8.1;59.5
78448;SHT31;67742;51.972;5.682;2023-03-05T00:29:18;8.1;59.4
78448;SHT31;67742;51.972;5.682;2023-03-05T00:31:48;8.1;59.2
78448;SHT31;67742;51.972;5.682;2023-03-05T00:34:18;8.1;59.5
78448;SHT31;67742;51.972;5.682;2023-03-05T00:36:50;8.1;59.2
78448;SHT31;67742;51.972;5.682;2023-03-05T00:39:21;8.1;59.3
78448;SHT31;67742;51.972;5.682;2023-03-05T00:41:52;8.1;59.3
78448;SHT31;67742;51.972;5.682;2023-03-05T00:44:21;8.1;59.5
78448;SHT31;67742;51.972;5.682;2023-03-05T00:46:51;8.1;59.4
78448;SHT31;67742;51.972;5.682;2023-03-05T00:49:21;8.1;59.3
78448;SHT31;67742;51.972;5.682;2023-03-05T00:51:50;8.1;59.2
78448;SHT31;67742;51.972;5.682;2023-03-05T00:54:20;8.1;59.0
78448;SHT31;67742;51.972;5.682;2023-03-05T00:56:50;8.1;59.2
78448;SHT31;67742;51.972;5.682;2023-03-05T00:59:19;8.0;59.1
78448;SHT31;67742;51.972;5.682;2023-03-05T01:01:49;8.1;59.0
78448;SHT31;67742;51.972;5.682;2023-03-05T01:04:18;8.0;59.0
78448;SHT31;67742;51.972;5.682;2023-03-05T01:06:48;8.0;59.1
78448;SHT31;67742;51.972;5.682;2023-03-05T01:09:19;8.0;59.0
78448;SHT31;67742;51.972;5.682;2023-03-05T01:11:52;8.0;58.9
78448;SHT31;67742;51.972;5.682;2023-03-05T01:14:22;8.0;58.8
78448;SHT31;67742;51.972;5.682;2023-03-05T01:16:54;8.0;58.8
78448;SHT31;67742;51.972;5.682;2023-03-05T01:19:23;8.0;58.7
78448;SHT31;67742;51.972;5.682;2023-03-05T01:21:53;8.0;58.7
78448;SHT31;67742;51.972;5.682;2023-03-05T01:24:23;8.0;58.6
78448;SHT31;67742;51.972;5.682;2023-03-05T01:26:53;8.0;58.7
78448;SHT31;67742;51.972;5.682;2023-03-05T01:29:23;8.1;58.7
78448;SHT31;67742;51.972;5.682;2023-03-05T01:31:53;8.1;58.6
78448;SHT31;67742;51.972;5.682;2023-03-05T01:34:23;8.1;58.7
78448;SHT31;67742;51.972;5.682;2023-03-05T01:36:54;8.1;58.5
78448;SHT31;67742;51.972;5.682;2023-03-05T01:39:24;8.1;58.4
78448;SHT31;67742;51.972;5.682;2023-03-05T01:41:53;8.1;58.4
78448;SHT31;67742;51.972;5.682;2023-03-05T01:44:26;8.1;58.5
78448;SHT31;67742;51.972;5.682;2023-03-05T01:46:56;8.1;58.5
78448;SHT31;67742;51.972;5.682;2023-03-05T01:49:27;8.1;58.8
78448;SHT31;67742;51.972;5.682;2023-03-05T01:52:07;8.0;58.8
78448;SHT31;67742;51.972;5.682;2023-03-05T01:54:44;8.0;59.2
78448;SHT31;67742;51.972;5.682;2023-03-05T01:57:18;8.0;59.0
78448;SHT31;67742;51.972;5.682;2023-03-05T01:59:52;8.0;59.3
78448;SHT31;67742;51.972;5.682;2023-03-05T02:02:24;8.0;59.6
78448;SHT31;67742;51.972;5.682;2023-03-05T02:04:58;8.0;59.6
78448;SHT31;67742;51.972;5.682;2023-03-05T02:07:30;7.9;59.7
78448;SHT31;67742;51.972;5.682;2023-03-05T02:10:19;7.9;60.0
78448;SHT31;67742;51.972;5.682;2023-03-05T02:12:52;7.9;59.8
78448;SHT31;67742;51.972;5.682;2023-03-05T02:15:23;8.0;59.7
78448;SHT31;67742;51.972;5.682;2023-03-05T02:17:53;8.0;60.0
78448;SHT31;67742;51.972;5.682;2023-03-05T02:20:26;8.0;59.8
78448;SHT31;67742;51.972;5.682;2023-03-05T02:22:56;8.0;59.8
78448;SHT31;67742;51.972;5.682;2023-03-05T02:25:28;8.0;59.8
78448;SHT31;67742;51.972;5.682;2023-03-05T02:28:02;8.0;60.0
78448;SHT31;67742;51.972;5.682;2023-03-05T02:30:34;7.9;60.2
78448;SHT31;67742;51.972;5.682;2023-03-05T02:33:05;7.9;59.8
78448;SHT31;67742;51.972;5.682;2023-03-05T02:35:37;7.9;59.9
78448;SHT31;67742;51.972;5.682;2023-03-05T02:38:06;7.9;60.0
78448;SHT31;67742;51.972;5.682;2023-03-05T02:40:35;7.9;60.0
78448;SHT31;67742;51.972;5.682;2023-03-05T02:43:05;7.9;59.9
78448;SHT31;67742;51.972;5.682;2023-03-05T02:45:35;7.9;59.9
78448;SHT31;67742;51.972;5.682;2023-03-05T02:48:05;7.9;60.0
78448;SHT31;67742;51.972;5.682;2023-03-05T02:50:35;7.9;60.2
78448;SHT31;67742;51.972;5.682;2023-03-05T02:53:06;7.9;60.0
78448;SHT31;67742;51.972;5.682;2023-03-05T02:55:36;7.9;59.9
78448;SHT31;67742;51.972;5.682;2023-03-05T02:58:06;7.9;60.0
78448;SHT31;67742;51.972;5.682;2023-03-05T03:00:35;7.9;60.0
78448;SHT31;67742;51.972;5.682;2023-03-05T03:03:05;7.9;60.0
78448;SHT31;67742;51.972;5.682;2023-03-05T03:05:36;7.9;60.2
78448;SHT31;67742;51.972;5.682;2023-03-05T03:08:08;7.8;60.1
78448;SHT31;67742;51.972;5.682;2023-03-05T03:10:38;7.8;60.4
78448;SHT31;67742;51.972;5.682;2023-03-05T03:13:08;7.8;60.6
78448;SHT31;67742;51.972;5.682;2023-03-05T03:15:37;7.8;60.5
78448;SHT31;67742;51.972;5.682;2023-03-05T03:18:07;7.8;60.4
78448;SHT31;67742;51.972;5.682;2023-03-05T03:20:38;7.8;60.4
78448;SHT31;67742;51.972;5.682;2023-03-05T03:23:09;7.8;60.4
78448;SHT31;67742;51.972;5.682;2023-03-05T03:25:39;7.7;60.4
78448;SHT31;67742;51.972;5.682;2023-03-05T03:28:08;7.7;60.6
78448;SHT31;67742;51.972;5.682;2023-03-05T03:30:38;7.7;60.7
78448;SHT31;67742;51.972;5.682;2023-03-05T03:33:07;7.7;60.8
78448;SHT31;67742;51.972;5.682;2023-03-05T03:35:37;7.7;60.9
78448;SHT31;67742;51.972;5.682;2023-03-05T03:38:08;7.6;61.0
78448;SHT31;67742;51.972;5.682;2023-03-05T03:40:40;7.6;61.2
78448;SHT31;67742;51.972;5.682;2023-03-05T03:43:10;7.6;61.2
78448;SHT31;67742;51.972;5.682;2023-03-05T03:45:42;7.5;61.3
78448;SHT31;67742;51.972;5.682;2023-03-05T03:48:11;7.4;61.3
78448;SHT31;67742;51.972;5.682;2023-03-05T03:50:42;7.4;61.7
78448;SHT31;67742;51.972;5.682;2023-03-05T03:53:12;7.4;61.9
78448;SHT31;67742;51.972;5.682;2023-03-05T03:55:43;7.3;61.9
78448;SHT31;67742;51.972;5.682;2023-03-05T03:58:16;7.3;62.1
78448;SHT31;67742;51.972;5.682;2023-03-05T04:00:45;7.3;62.5
78448;SHT31;67742;51.972;5.682;2023-03-05T04:03:14;7.3;62.5
78448;SHT31;67742;51.972;5.682;2023-03-05T04:05:44;7.3;62.3
78448;SHT31;67742;51.972;5.682;2023-03-05T04:08:13;7.3;62.4
78448;SHT31;67742;51.972;5.682;2023-03-05T04:10:43;7.3;62.5
78448;SHT31;67742;51.972;5.682;2023-03-05T04:13:13;7.3;62.3
78448;SHT31;67742;51.972;5.682;2023-03-05T04:15:43;7.3;62.4
78448;SHT31;67742;51.972;5.682;2023-03-05T04:18:14;7.3;62.8
78448;SHT31;67742;51.972;5.682;2023-03-05T04:20:44;7.4;62.3
78448;SHT31;67742;51.972;5.682;2023-03-05T04:23:14;7.4;62.3
78448;SHT31;67742;51.972;5.682;2023-03-05T04:25:44;7.4;62.5
78448;SHT31;67742;51.972;5.682;2023-03-05T04:28:14;7.4;62.4
78448;SHT31;67742;51.972;5.682;2023-03-05T04:30:44;7.4;62.2
78448;SHT31;67742;51.972;5.682;2023-03-05T04:33:14;7.4;62.1
78448;SHT31;67742;51.972;5.682;2023-03-05T04:35:43;7.4;62.2
78448;SHT31;67742;51.972;5.682;2023-03-05T04:38:13;7.4;62.3
78448;SHT31;67742;51.972;5.682;2023-03-05T04:40:43;7.4;62.0
78448;SHT31;67742;51.972;5.682;2023-03-05T04:43:13;7.4;62.0
78448;SHT31;67742;51.972;5.682;2023-03-05T04:45:43;7.4;62.1
78448;SHT31;67742;51.972;5.682;2023-03-05T04:48:13;7.5;61.9
78448;SHT31;67742;51.972;5.682;2023-03-05T04:50:43;7.5;62.0
78448;SHT31;67742;51.972;5.682;2023-03-05T04:53:13;7.5;62.0
78448;SHT31;67742;51.972;5.682;2023-03-05T04:55:43;7.5;61.9
78448;SHT31;67742;51.972;5.682;2023-03-05T04:58:12;7.5;62.6
78448;SHT31;67742;51.972;5.682;2023-03-05T05:00:42;7.5;62.3
78448;SHT31;67742;51.972;5.682;2023-03-05T05:03:11;7.5;62.3
78448;SHT31;67742;51.972;5.682;2023-03-05T05:05:41;7.5;62.6
78448;SHT31;67742;51.972;5.682;2023-03-05T05:08:10;7.5;62.8
78448;SHT31;67742;51.972;5.682;2023-03-05T05:10:40;7.5;63.6
78448;SHT31;67742;51.972;5.682;2023-03-05T05:13:09;7.5;63.2
78448;SHT31;67742;51.972;5.682;2023-03-05T05:15:42;7.5;63.2
78448;SHT31;67742;51.972;5.682;2023-03-05T05:18:12;7.5;63.1
78448;SHT31;67742;51.972;5.682;2023-03-05T05:20:41;7.5;63.0
78448;SHT31;67742;51.972;5.682;2023-03-05T05:23:11;7.5;63.2
78448;SHT31;67742;51.972;5.682;2023-03-05T05:25:40;7.4;63.6
78448;SHT31;67742;51.972;5.682;2023-03-05T05:28:12;7.4;63.2
78448;SHT31;67742;51.972;5.682;2023-03-05T05:30:41;7.4;63.2
78448;SHT31;67742;51.972;5.682;2023-03-05T05:33:10;7.4;63.4
78448;SHT31;67742;51.972;5.682;2023-03-05T05:35:40;7.4;63.4
78448;SHT31;67742;51.972;5.682;2023-03-05T05:38:09;7.4;63.4
78448;SHT31;67742;51.972;5.682;2023-03-05T05:40:40;7.4;63.2
78448;SHT31;67742;51.972;5.682;2023-03-05T05:43:09;7.4;63.1
78448;SHT31;67742;51.972;5.682;2023-03-05T05:45:39;7.3;63.3
78448;SHT31;67742;51.972;5.682;2023-03-05T05:48:09;7.3;63.3
78448;SHT31;67742;51.972;5.682;2023-03-05T05:50:38;7.3;63.2
78448;SHT31;67742;51.972;5.682;2023-03-05T05:53:08;7.3;63.1
78448;SHT31;67742;51.972;5.682;2023-03-05T05:55:42;7.3;63.1
78448;SHT31;67742;51.972;5.682;2023-03-05T05:58:11;7.3;63.2
78448;SHT31;67742;51.972;5.682;2023-03-05T06:00:41;7.3;63.2
78448;SHT31;67742;51.972;5.682;2023-03-05T06:03:11;7.3;63.2
78448;SHT31;67742;51.972;5.682;2023-03-05T06:05:41;7.2;63.2
78448;SHT31;67742;51.972;5.682;2023-03-05T06:08:16;7.2;63.1
78448;SHT31;67742;51.972;5.682;2023-03-05T06:10:55;7.2;63.4
78448;SHT31;67742;51.972;5.682;2023-03-05T06:13:24;7.2;63.3
78448;SHT31;67742;51.972;5.682;2023-03-05T06:15:59;7.2;63.4
78448;SHT31;67742;51.972;5.682;2023-03-05T06:18:30;7.2;63.4
78448;SHT31;67742;51.972;5.682;2023-03-05T06:21:01;7.2;63.6
78448;SHT31;67742;51.972;5.682;2023-03-05T06:23:32;7.2;63.4
78448;SHT31;67742;51.972;5.682;2023-03-05T06:26:06;7.2;63.3
78448;SHT31;67742;51.972;5.682;2023-03-05T06:28:36;7.2;63.3
78448;SHT31;67742;51.972;5.682;2023-03-05T06:31:07;7.2;63.3
78448;SHT31;67742;51.972;5.682;2023-03-05T06:33:38;7.2;63.5
78448;SHT31;67742;51.972;5.682;2023-03-05T06:36:10;7.2;63.7
78448;SHT31;67742;51.972;5.682;2023-03-05T06:38:41;7.2;63.9
78448;SHT31;67742;51.972;5.682;2023-03-05T06:41:13;7.2;63.5
78448;SHT31;67742;51.972;5.682;2023-03-05T06:43:47;7.2;63.5
78448;SHT31;67742;51.972;5.682;2023-03-05T06:46:18;7.2;64.0
78448;SHT31;67742;51.972;5.682;2023-03-05T06:48:49;7.2;63.9
78448;SHT31;67742;51.972;5.682;2023-03-05T06:51:21;7.2;64.2
78448;SHT31;67742;51.972;5.682;2023-03-05T06:53:51;7.2;63.9
78448;SHT31;67742;51.972;5.682;2023-03-05T06:56:24;7.2;64.3
78448;SHT31;67742;51.972;5.682;2023-03-05T06:58:55;7.2;65.0
78448;SHT31;67742;51.972;5.682;2023-03-05T07:01:27;7.2;64.4
78448;SHT31;67742;51.972;5.682;2023-03-05T07:03:56;7.2;64.5
78448;SHT31;67742;51.972;5.682;2023-03-05T07:06:31;7.2;64.3
78448;SHT31;67742;51.972;5.682;2023-03-05T07:09:03;7.2;64.1
78448;SHT31;67742;51.972;5.682;2023-03-05T07:11:33;7.2;64.2
78448;SHT31;67742;51.972;5.682;2023-03-05T07:14:03;7.2;64.9
78448;SHT31;67742;51.972;5.682;2023-03-05T07:16:33;7.2;64.6
78448;SHT31;67742;51.972;5.682;2023-03-05T07:19:04;7.3;64.9
78448;SHT31;67742;51.972;5.682;2023-03-05T07:21:37;7.3;64.9
78448;SHT31;67742;51.972;5.682;2023-03-05T07:24:10;7.3;65.0
78448;SHT31;67742;51.972;5.682;2023-03-05T07:26:41;7.3;65.2
78448;SHT31;67742;51.972;5.682;2023-03-05T07:29:10;7.3;65.5
78448;SHT31;67742;51.972;5.682;2023-03-05T07:31:40;7.3;65.2
78448;SHT31;67742;51.972;5.682;2023-03-05T07:34:10;7.3;65.6
78448;SHT31;67742;51.972;5.682;2023-03-05T07:36:39;7.4;65.7
78448;SHT31;67742;51.972;5.682;2023-03-05T07:39:10;7.4;65.2
78448;SHT31;67742;51.972;5.682;2023-03-05T07:41:40;7.4;65.6
78448;SHT31;67742;51.972;5.682;2023-03-05T07:44:10;7.4;65.3
78448;SHT31;67742;51.972;5.682;2023-03-05T07:46:40;7.4;65.2
78448;SHT31;67742;51.972;5.682;2023-03-05T07:49:10;7.4;65.4
78448;SHT31;67742;51.972;5.682;2023-03-05T07:51:40;7.4;65.1
78448;SHT31;67742;51.972;5.682;2023-03-05T07:54:10;7.4;65.4
78448;SHT31;67742;51.972;5.682;2023-03-05T07:56:39;7.4;65.3
78448;SHT31;67742;51.972;5.682;2023-03-05T07:59:11;7.3;65.2
78448;SHT31;67742;51.972;5.682;2023-03-05T08:01:41;7.4;65.4
78448;SHT31;67742;51.972;5.682;2023-03-05T08:04:11;7.4;65.3
78448;SHT31;67742;51.972;5.682;2023-03-05T08:06:41;7.4;65.0
78448;SHT31;67742;51.972;5.682;2023-03-05T08:09:13;7.4;65.1
78448;SHT31;67742;51.972;5.682;2023-03-05T08:11:43;7.4;65.2
78448;SHT31;67742;51.972;5.682;2023-03-05T08:14:15;7.4;65.9
78448;SHT31;67742;51.972;5.682;2023-03-05T08:16:44;7.4;66.5
78448;SHT31;67742;51.972;5.682;2023-03-05T08:19:19;7.4;66.2
78448;SHT31;67742;51.972;5.682;2023-03-05T08:21:51;7.4;66.2
78448;SHT31;67742;51.972;5.682;2023-03-05T08:24:21;7.4;65.9
78448;SHT31;67742;51.972;5.682;2023-03-05T08:26:57;7.5;65.6
78448;SHT31;67742;51.972;5.682;2023-03-05T08:29:28;7.5;65.7
78448;SHT31;67742;51.972;5.682;2023-03-05T08:32:00;7.5;65.8
78448;SHT31;67742;51.972;5.682;2023-03-05T08:34:29;7.5;66.0
78448;SHT31;67742;51.972;5.682;2023-03-05T08:36:59;7.5;66.4
78448;SHT31;67742;51.972;5.682;2023-03-05T08:39:30;7.5;66.5
78448;SHT31;67742;51.972;5.682;2023-03-05T08:42:00;7.4;66.3
78448;SHT31;67742;51.972;5.682;2023-03-05T08:44:30;7.5;66.7
78448;SHT31;67742;51.972;5.682;2023-03-05T08:47:00;7.5;66.7
78448;SHT31;67742;51.972;5.682;2023-03-05T08:49:30;7.5;66.7
78448;SHT31;67742;51.972;5.682;2023-03-05T08:51:59;7.5;66.5
78448;SHT31;67742;51.972;5.682;2023-03-05T08:54:29;7.6;67.0
78448;SHT31;67742;51.972;5.682;2023-03-05T08:56:58;7.6;66.5
78448;SHT31;67742;51.972;5.682;2023-03-05T08:59:29;7.7;66.3
78448;SHT31;67742;51.972;5.682;2023-03-05T09:02:01;7.7;66.1
78448;SHT31;67742;51.972;5.682;2023-03-05T09:04:31;7.7;66.6
78448;SHT31;67742;51.972;5.682;2023-03-05T09:07:01;7.8;66.9
78448;SHT31;67742;51.972;5.682;2023-03-05T09:09:31;7.9;65.8
78448;SHT31;67742;51.972;5.682;2023-03-05T09:12:01;7.9;65.2
78448;SHT31;67742;51.972;5.682;2023-03-05T09:14:33;8.0;64.5
78448;SHT31;67742;51.972;5.682;2023-03-05T09:17:02;8.1;64.2
78448;SHT31;67742;51.972;5.682;2023-03-05T09:19:34;8.1;63.4
78448;SHT31;67742;51.972;5.682;2023-03-05T09:22:03;8.1;63.6
78448;SHT31;67742;51.972;5.682;2023-03-05T09:24:33;8.1;63.5
78448;SHT31;67742;51.972;5.682;2023-03-05T09:27:02;8.1;63.6
78448;SHT31;67742;51.972;5.682;2023-03-05T09:29:32;8.1;63.3
78448;SHT31;67742;51.972;5.682;2023-03-05T09:32:02;8.1;62.0
78448;SHT31;67742;51.972;5.682;2023-03-05T09:34:34;8.1;62.5
78448;SHT31;67742;51.972;5.682;2023-03-05T09:37:04;8.1;63.0
78448;SHT31;67742;51.972;5.682;2023-03-05T09:39:33;8.2;62.7
78448;SHT31;67742;51.972;5.682;2023-03-05T09:42:17;8.2;62.0
78448;SHT31;67742;51.972;5.682;2023-03-05T09:45:05;8.2;62.6
78448;SHT31;67742;51.972;5.682;2023-03-05T09:47:53;8.2;62.9
78448;SHT31;67742;51.972;5.682;2023-03-05T09:50:32;8.3;62.7
78448;SHT31;67742;51.972;5.682;2023-03-05T09:53:10;8.3;62.8
78448;SHT31;67742;51.972;5.682;2023-03-05T09:55:45;8.4;62.1
78448;SHT31;67742;51.972;5.682;2023-03-05T09:58:18;8.4;61.6
78448;SHT31;67742;51.972;5.682;2023-03-05T10:00:54;8.4;61.8
78448;SHT31;67742;51.972;5.682;2023-03-05T10:03:29;8.4;62.3
78448;SHT31;67742;51.972;5.682;2023-03-05T10:06:05;8.5;62.0
78448;SHT31;67742;51.972;5.682;2023-03-05T10:08:48;8.5;60.5
78448;SHT31;67742;51.972;5.682;2023-03-05T10:11:33;8.6;61.0
78448;SHT31;67742;51.972;5.682;2023-03-05T10:14:04;8.6;60.7
78448;SHT31;67742;51.972;5.682;2023-03-05T10:21:41;8.7;60.1
78448;SHT31;67742;51.972;5.682;2023-03-05T10:24:19;8.7;59.8
78448;SHT31;67742;51.972;5.682;2023-03-05T10:26:57;8.7;60.6
78448;SHT31;67742;51.972;5.682;2023-03-05T10:30:32;8.7;61.3
78448;SHT31;67742;51.972;5.682;2023-03-05T10:33:17;8.8;60.8
78448;SHT31;67742;51.972;5.682;2023-03-05T10:36:13;8.8;59.0
78448;SHT31;67742;51.972;5.682;2023-03-05T10:39:21;8.8;59.0
78448;SHT31;67742;51.972;5.682;2023-03-05T10:42:04;8.9;59.4
78448;SHT31;67742;51.972;5.682;2023-03-05T10:44:41;8.9;58.8
78448;SHT31;67742;51.972;5.682;2023-03-05T10:47:21;8.9;59.2
78448;SHT31;67742;51.972;5.682;2023-03-05T10:49:53;8.9;58.6
78448;SHT31;67742;51.972;5.682;2023-03-05T10:52:26;8.9;57.7
78448;SHT31;67742;51.972;5.682;2023-03-05T10:54:58;9.0;58.2
78448;SHT31;67742;51.972;5.682;2023-03-05T10:57:30;9.0;58.0
78448;SHT31;67742;51.972;5.682;2023-03-05T11:00:17;9.0;58.3
78448;SHT31;67742;51.972;5.682;2023-03-05T11:02:56;9.0;58.2
78448;SHT31;67742;51.972;5.682;2023-03-05T11:05:39;9.1;57.7
78448;SHT31;67742;51.972;5.682;2023-03-05T11:08:29;9.1;57.4
78448;SHT31;67742;51.972;5.682;2023-03-05T11:11:13;9.1;56.1
78448;SHT31;67742;51.972;5.682;2023-03-05T11:13:55;9.2;56.4
78448;SHT31;67742;51.972;5.682;2023-03-05T11:16:27;9.2;56.9
78448;SHT31;67742;51.972;5.682;2023-03-05T11:19:15;9.2;56.3
78448;SHT31;67742;51.972;5.682;2023-03-05T11:22:06;9.2;55.9
78448;SHT31;67742;51.972;5.682;2023-03-05T11:24:37;9.2;55.7
78448;SHT31;67742;51.972;5.682;2023-03-05T11:27:24;9.2;56.6
78448;SHT31;67742;51.972;5.682;2023-03-05T11:29:54;9.2;55.5
78448;SHT31;67742;51.972;5.682;2023-03-05T11:32:27;9.3;56.9
78448;SHT31;67742;51.972;5.682;2023-03-05T11:34:57;9.3;55.6
78448;SHT31;67742;51.972;5.682;2023-03-05T11:37:28;9.4;55.3
78448;SHT31;67742;51.972;5.682;2023-03-05T11:40:19;9.4;55.1
78448;SHT31;67742;51.972;5.682;2023-03-05T11:42:54;9.5;55.2
78448;SHT31;67742;51.972;5.682;2023-03-05T11:45:26;9.5;55.4
78448;SHT31;67742;51.972;5.682;2023-03-05T11:48:00;9.6;56.5
78448;SHT31;67742;51.972;5.682;2023-03-05T11:50:32;9.6;57.3
78448;SHT31;67742;51.972;5.682;2023-03-05T11:53:06;9.7;56.1
78448;SHT31;67742;51.972;5.682;2023-03-05T11:55:41;9.7;55.8
78448;SHT31;67742;51.972;5.682;2023-03-05T11:58:24;9.8;55.1
78448;SHT31;67742;51.972;5.682;2023-03-05T12:00:55;9.9;52.8
78448;SHT31;67742;51.972;5.682;2023-03-05T12:03:29;9.9;53.7
78448;SHT31;67742;51.972;5.682;2023-03-05T12:06:08;10.0;53.8
78448;SHT31;67742;51.972;5.682;2023-03-05T12:08:46;10.0;53.4
78448;SHT31;67742;51.972;5.682;2023-03-05T12:11:20;10.1;53.4
78448;SHT31;67742;51.972;5.682;2023-03-05T12:13:57;10.1;53.0
78448;SHT31;67742;51.972;5.682;2023-03-05T12:16:35;10.2;52.6
78448;SHT31;67742;51.972;5.682;2023-03-05T12:19:39;10.2;53.3
78448;SHT31;67742;51.972;5.682;2023-03-05T12:22:19;10.3;52.4
78448;SHT31;67742;51.972;5.682;2023-03-05T12:24:50;10.3;52.7
78448;SHT31;67742;51.972;5.682;2023-03-05T12:27:34;10.4;51.7
78448;SHT31;67742;51.972;5.682;2023-03-05T12:30:51;10.4;51.7
78448;SHT31;67742;51.972;5.682;2023-03-05T12:33:09;10.4;52.7
78448;SHT31;67742;51.972;5.682;2023-03-05T12:35:40;10.5;51.7
78448;SHT31;67742;51.972;5.682;2023-03-05T12:38:31;10.5;51.5
78448;SHT31;67742;51.972;5.682;2023-03-05T12:42:53;10.5;50.6
78448;SHT31;67742;51.972;5.682;2023-03-05T12:45:26;10.6;50.6
78448;SHT31;67742;51.972;5.682;2023-03-05T12:49:14;10.6;50.1
78448;SHT31;67742;51.972;5.682;2023-03-05T12:51:51;10.6;50.1
78448;SHT31;67742;51.972;5.682;2023-03-05T12:54:27;10.6;50.7
78448;SHT31;67742;51.972;5.682;2023-03-05T12:56:59;10.7;50.0
78448;SHT31;67742;51.972;5.682;2023-03-05T12:59:38;10.7;50.2
78448;SHT31;67742;51.972;5.682;2023-03-05T13:02:19;10.7;50.7
78448;SHT31;67742;51.972;5.682;2023-03-05T13:04:56;10.7;50.4
78448;SHT31;67742;51.972;5.682;2023-03-05T13:07:27;10.8;49.0
78448;SHT31;67742;51.972;5.682;2023-03-05T13:09:58;10.8;48.6
78448;SHT31;67742;51.972;5.682;2023-03-05T13:12:29;10.7;48.4
78448;SHT31;67742;51.972;5.682;2023-03-05T13:15:03;10.7;49.2
78448;SHT31;67742;51.972;5.682;2023-03-05T13:17:36;10.7;48.9
78448;SHT31;67742;51.972;5.682;2023-03-05T13:20:31;10.7;50.1
78448;SHT31;67742;51.972;5.682;2023-03-05T13:23:16;10.7;50.2
78448;SHT31;67742;51.972;5.682;2023-03-05T13:26:07;10.7;50.2
78448;SHT31;67742;51.972;5.682;2023-03-05T13:28:37;10.7;49.3
78448;SHT31;67742;51.972;5.682;2023-03-05T13:31:15;10.7;48.4
78448;SHT31;67742;51.972;5.682;2023-03-05T13:33:52;10.7;48.4
78448;SHT31;67742;51.972;5.682;2023-03-05T13:36:25;10.7;48.1
78448;SHT31;67742;51.972;5.682;2023-03-05T13:38:55;10.7;47.7
78448;SHT31;67742;51.972;5.682;2023-03-05T13:41:27;10.7;47.7
78448;SHT31;67742;51.972;5.682;2023-03-05T13:43:59;10.6;47.9
78448;SHT31;67742;51.972;5.682;2023-03-05T13:46:32;10.6;48.4
78448;SHT31;67742;51.972;5.682;2023-03-05T13:49:35;10.6;48.4
78448;SHT31;67742;51.972;5.682;2023-03-05T13:52:05;10.6;49.1
78448;SHT31;67742;51.972;5.682;2023-03-05T13:54:35;10.5;48.6
78448;SHT31;67742;51.972;5.682;2023-03-05T13:57:06;10.5;48.2
78448;SHT31;67742;51.972;5.682;2023-03-05T13:59:36;10.5;47.5
78448;SHT31;67742;51.972;5.682;2023-03-05T14:02:17;10.5;47.9
78448;SHT31;67742;51.972;5.682;2023-03-05T14:04:47;10.5;47.2
78448;SHT31;67742;51.972;5.682;2023-03-05T14:07:27;10.5;47.4
78448;SHT31;67742;51.972;5.682;2023-03-05T14:09:58;10.4;48.4
78448;SHT31;67742;51.972;5.682;2023-03-05T14:12:34;10.4;47.7
78448;SHT31;67742;51.972;5.682;2023-03-05T14:15:20;10.4;47.2
78448;SHT31;67742;51.972;5.682;2023-03-05T14:17:51;10.4;47.1
78448;SHT31;67742;51.972;5.682;2023-03-05T14:20:27;10.4;47.8
78448;SHT31;67742;51.972;5.682;2023-03-05T14:22:58;10.3;47.6
78448;SHT31;67742;51.972;5.682;2023-03-05T14:25:34;10.3;47.4
78448;SHT31;67742;51.972;5.682;2023-03-05T14:28:17;10.3;47.0
78448;SHT31;67742;51.972;5.682;2023-03-05T14:30:43;10.3;47.4
78448;SHT31;67742;51.972;5.682;2023-03-05T14:33:14;10.3;47.3
78448;SHT31;67742;51.972;5.682;2023-03-05T14:35:51;10.3;47.0
78448;SHT31;67742;51.972;5.682;2023-03-05T14:38:23;10.3;47.3
78448;SHT31;67742;51.972;5.682;2023-03-05T14:40:55;10.2;47.4
78448;SHT31;67742;51.972;5.682;2023-03-05T14:43:24;10.2;47.4
78448;SHT31;67742;51.972;5.682;2023-03-05T14:45:53;10.2;47.9
78448;SHT31;67742;51.972;5.682;2023-03-05T14:48:25;10.1;48.9
78448;SHT31;67742;51.972;5.682;2023-03-05T14:50:54;10.1;48.6
78448;SHT31;67742;51.972;5.682;2023-03-05T14:53:27;10.1;48.5
78448;SHT31;67742;51.972;5.682;2023-03-05T14:55:57;10.1;48.7
78448;SHT31;67742;51.972;5.682;2023-03-05T14:58:30;10.0;49.0
78448;SHT31;67742;51.972;5.682;2023-03-05T15:01:02;10.0;49.6
78448;SHT31;67742;51.972;5.682;2023-03-05T15:03:31;10.0;49.2
78448;SHT31;67742;51.972;5.682;2023-03-05T15:06:01;9.9;49.5
78448;SHT31;67742;51.972;5.682;2023-03-05T15:08:31;9.9;49.4
78448;SHT31;67742;51.972;5.682;2023-03-05T15:11:02;9.9;49.4
78448;SHT31;67742;51.972;5.682;2023-03-05T15:13:33;9.8;49.1
78448;SHT31;67742;51.972;5.682;2023-03-05T15:16:05;9.8;48.8
78448;SHT31;67742;51.972;5.682;2023-03-05T15:18:36;9.8;49.2
78448;SHT31;67742;51.972;5.682;2023-03-05T15:21:05;9.7;49.5
78448;SHT31;67742;51.972;5.682;2023-03-05T15:23:35;9.7;49.7
78448;SHT31;67742;51.972;5.682;2023-03-05T15:26:07;9.7;49.9
78448;SHT31;67742;51.972;5.682;2023-03-05T15:28:38;9.7;50.1
78448;SHT31;67742;51.972;5.682;2023-03-05T15:31:08;9.7;50.5
78448;SHT31;67742;51.972;5.682;2023-03-05T15:33:38;9.7;50.8
78448;SHT31;67742;51.972;5.682;2023-03-05T15:36:09;9.7;51.0
78448;SHT31;67742;51.972;5.682;2023-03-05T15:38:40;9.7;50.9
78448;SHT31;67742;51.972;5.682;2023-03-05T15:41:09;9.7;51.0
78448;SHT31;67742;51.972;5.682;2023-03-05T15:43:39;9.7;51.4
78448;SHT31;67742;51.972;5.682;2023-03-05T15:46:08;9.7;51.2
78448;SHT31;67742;51.972;5.682;2023-03-05T15:48:40;9.7;51.1
78448;SHT31;67742;51.972;5.682;2023-03-05T15:51:15;9.7;51.2
78448;SHT31;67742;51.972;5.682;2023-03-05T15:53:45;9.7;51.0
78448;SHT31;67742;51.972;5.682;2023-03-05T15:56:16;9.6;51.3
78448;SHT31;67742;51.972;5.682;2023-03-05T15:58:47;9.6;51.8
78448;SHT31;67742;51.972;5.682;2023-03-05T16:01:19;9.6;52.1
78448;SHT31;67742;51.972;5.682;2023-03-05T16:03:50;9.6;52.6
78448;SHT31;67742;51.972;5.682;2023-03-05T16:06:21;9.5;52.6
78448;SHT31;67742;51.972;5.682;2023-03-05T16:08:56;9.5;52.3
78448;SHT31;67742;51.972;5.682;2023-03-05T16:11:27;9.4;52.5
78448;SHT31;67742;51.972;5.682;2023-03-05T16:13:58;9.4;52.5
78448;SHT31;67742;51.972;5.682;2023-03-05T16:16:31;9.4;52.5
78448;SHT31;67742;51.972;5.682;2023-03-05T16:19:02;9.3;52.7
78448;SHT31;67742;51.972;5.682;2023-03-05T16:21:33;9.3;53.1
78448;SHT31;67742;51.972;5.682;2023-03-05T16:24:02;9.3;52.7
78448;SHT31;67742;51.972;5.682;2023-03-05T16:26:33;9.3;52.9
78448;SHT31;67742;51.972;5.682;2023-03-05T16:29:03;9.3;52.9
78448;SHT31;67742;51.972;5.682;2023-03-05T16:31:34;9.2;53.0
78448;SHT31;67742;51.972;5.682;2023-03-05T16:34:04;9.2;53.0
78448;SHT31;67742;51.972;5.682;2023-03-05T16:36:34;9.2;52.9
78448;SHT31;67742;51.972;5.682;2023-03-05T16:39:04;9.2;53.0
78448;SHT31;67742;51.972;5.682;2023-03-05T16:41:33;9.2;53.1
78448;SHT31;67742;51.972;5.682;2023-03-05T16:44:03;9.2;53.2
78448;SHT31;67742;51.972;5.682;2023-03-05T16:46:33;9.1;53.4
78448;SHT31;67742;51.972;5.682;2023-03-05T16:49:04;9.1;53.7
78448;SHT31;67742;51.972;5.682;2023-03-05T16:51:35;9.1;53.8
78448;SHT31;67742;51.972;5.682;2023-03-05T16:54:05;9.1;54.0
78448;SHT31;67742;51.972;5.682;2023-03-05T16:56:35;9.1;54.0
78448;SHT31;67742;51.972;5.682;2023-03-05T16:59:04;9.1;53.8